Time;durP1;ratioP1;P1;durP2;ratioP2;P2;SDS_P1;SDS_P2;PMS_P1;PMS_P2;Temp;Humidity;BMP_temperature;BMP_pressure;BME280_temperature;BME280_humidity;BME280_pressure;Samples;Min_cycle;Max_cycle;Signal;HPM_P1;HPM_P2
2022/02/02 00:01:03;;;;;;;31.17;12.47;;;;;;;-3.68;76.11;99171.84;1731545;79;21508;-68
2022/02/02 00:03:30;;;;;;;31.75;12.55;;;;;;;-3.73;75.90;99169.66;1772609;79;21072;-68
2022/02/02 00:06:08;;;;;;;36.83;14.27;;;;;;;-3.76;77.88;99173.94;1783129;79;21793;-69
2022/02/02 00:08:35;;;;;;;42.90;14.45;;;;;;;-3.85;74.23;99170.45;1797989;79;21021;-68
2022/02/02 00:13:41;;;;;;;30.60;12.57;;;;;;;-3.93;75.39;99164.86;1782907;79;21143;-69
2022/02/02 00:16:12;;;;;;;29.87;12.10;;;;;;;-3.99;74.78;99162.23;1776773;79;21045;-69
2022/02/02 00:21:15;;;;;;;29.43;12.43;;;;;;;-4.09;75.91;99159.61;1770655;79;21597;-69
2022/02/02 00:23:44;;;;;;;27.87;11.93;;;;;;;-4.12;76.37;99155.70;1761657;79;21082;-68
2022/02/02 00:26:10;;;;;;;32.08;13.62;;;;;;;-4.15;78.03;99159.55;1757297;79;21105;-69
2022/02/02 00:28:39;;;;;;;29.33;11.03;;;;;;;-4.17;77.20;99153.54;1715043;83;21544;-68
2022/02/02 00:31:07;;;;;;;30.13;11.60;;;;;;;-4.19;78.10;99146.23;1744075;79;21455;-68
2022/02/02 00:33:37;;;;;;;29.00;11.37;;;;;;;-4.21;78.89;99140.22;1759267;79;21475;-67
2022/02/02 00:36:05;;;;;;;33.30;11.63;;;;;;;-4.20;78.55;99143.68;1778680;79;21020;-67
2022/02/02 00:38:27;;;;;;;27.00;12.70;;;;;;;-4.24;80.62;99135.92;1764139;79;21055;-68
2022/02/02 00:40:54;;;;;;;27.93;11.50;;;;;;;-4.24;79.39;99129.93;1774019;79;21042;-69
2022/02/02 00:43:20;;;;;;;24.30;10.07;;;;;;;-4.24;80.62;99129.93;1771924;79;22172;-67
2022/02/02 00:45:47;;;;;;;26.93;11.43;;;;;;;-4.26;81.17;99134.20;1770755;79;21692;-68
2022/02/02 00:48:16;;;;;;;24.70;10.70;;;;;;;-4.27;79.94;99128.64;1749277;79;21081;-69
2022/02/02 00:50:44;;;;;;;28.50;10.90;;;;;;;-4.27;81.84;99120.92;1689671;83;21070;-69
2022/02/02 00:53:13;;;;;;;26.77;10.90;;;;;;;-4.28;80.99;99117.90;1774693;79;21105;-68
2022/02/02 00:55:40;;;;;;;30.37;11.63;;;;;;;-4.30;81.04;99124.73;1783045;79;21188;-68
2022/02/02 00:58:07;;;;;;;28.77;11.67;;;;;;;-4.31;82.26;99113.60;1796524;79;21498;-69
2022/02/02 01:00:33;;;;;;;31.40;12.37;;;;;;;-4.33;80.82;99117.02;1754320;79;21564;-69
2022/02/02 01:03:00;;;;;;;26.67;11.07;;;;;;;-4.32;82.23;99111.90;1757647;79;21125;-67
2022/02/02 01:05:26;;;;;;;30.30;11.13;;;;;;;-4.38;82.10;99106.70;1696949;83;21049;-68
2022/02/02 01:10:44;;;;;;;34.17;13.77;;;;;;;-4.37;83.50;99111.02;1684442;83;21055;-69
2022/02/02 01:18:58;;;;;;;35.90;13.50;;;;;;;-4.43;84.81;99086.11;1781306;79;21482;-69
2022/02/02 01:21:29;;;;;;;31.97;12.03;;;;;;;-4.46;82.74;99088.67;1710078;83;22164;-71
2022/02/02 01:29:16;;;;;;;29.23;11.33;;;;;;;-4.57;83.40;99087.73;1798526;79;21042;-70
2022/02/02 01:31:42;;;;;;;30.33;11.77;;;;;;;-4.61;83.82;99086.42;1776575;79;21041;-69
2022/02/02 01:34:09;;;;;;;32.13;12.37;;;;;;;-4.66;85.24;99081.25;1792653;79;21250;-68
2022/02/02 01:36:39;;;;;;;30.60;12.43;;;;;;;-4.73;84.37;99082.05;1799995;79;21277;-69
2022/02/02 01:39:05;;;;;;;39.97;13.93;;;;;;;-4.75;85.01;99087.17;1791810;79;21644;-67
2022/02/02 01:41:33;;;;;;;36.67;15.47;;;;;;;-4.79;85.06;99084.56;1799797;79;21014;-68
2022/02/02 01:44:14;;;;;;;34.40;12.57;;;;;;;-4.85;84.60;99081.54;1779624;79;21073;-69
2022/02/02 01:46:35;;;;;;;31.20;13.33;;;;;;;-4.86;86.89;99075.95;1735383;81;21518;-68
2022/02/02 01:49:59;;;;;;;39.50;13.33;;;;;;;-4.89;85.53;99078.50;1763947;79;21055;-68
2022/02/02 01:56:45;;;;;;;36.17;13.67;;;;;;;-4.98;85.95;99079.28;1638994;85;21343;-67
2022/02/02 01:59:34;;;;;;;31.57;13.00;;;;;;;-5.00;87.14;99078.41;1638826;85;21161;-68
2022/02/02 02:01:47;;;;;;;41.60;16.67;;;;;;;-5.03;87.02;99076.25;1638281;83;21036;-67
2022/02/02 02:04:13;;;;;;;37.10;14.83;;;;;;;-5.08;86.43;99071.08;1710281;82;21130;-67
2022/02/02 02:06:40;;;;;;;36.47;14.93;;;;;;;-5.09;89.04;99070.19;1718638;83;21037;-68
2022/02/02 02:09:06;;;;;;;39.83;15.33;;;;;;;-5.12;87.26;99059.05;1718798;83;21592;-68
2022/02/02 02:11:36;;;;;;;33.93;13.73;;;;;;;-5.14;87.07;99059.45;1742979;81;21170;-66
2022/02/02 02:14:35;;;;;;;31.10;13.67;;;;;;;-5.15;88.95;99064.17;1723011;82;21548;-67
2022/02/02 02:16:31;;;;;;;34.73;14.40;;;;;;;-5.18;86.73;99065.41;1732600;82;21098;-69
2022/02/02 02:18:58;;;;;;;33.20;13.90;;;;;;;-5.18;86.76;99064.13;1695651;83;21557;-68
2022/02/02 02:21:25;;;;;;;32.60;13.27;;;;;;;-5.20;86.97;99056.83;1709069;82;21119;-69
2022/02/02 02:23:52;;;;;;;29.10;12.10;;;;;;;-5.20;86.70;99050.41;1712744;82;22163;-67
2022/02/02 02:26:23;;;;;;;31.57;12.67;;;;;;;-5.24;87.96;99043.55;1701210;82;21060;-67
2022/02/02 02:31:47;;;;;;;23.43;10.83;;;;;;;-5.28;87.57;99042.22;1657574;86;21102;-69
2022/02/02 02:56:44;;;;;;;31.87;13.37;;;;;;;-5.49;87.10;99040.31;1742935;81;21636;-68
2022/02/02 02:59:13;;;;;;;30.97;14.03;;;;;;;-5.51;87.28;99042.44;1754252;81;21170;-67
2022/02/02 03:32:27;;;;;;;21.30;9.83;;;;;;;-5.53;85.18;99019.31;1723574;83;21519;-67
2022/02/02 03:34:58;;;;;;;28.50;11.70;;;;;;;-5.57;86.03;99017.56;1718839;83;21070;-67
2022/02/02 03:51:10;;;;;;;21.77;8.00;;;;;;;-5.77;87.18;99028.92;1712670;83;21125;-68
2022/02/02 03:59:12;;;;;;;17.70;7.80;;;;;;;-5.78;87.79;99027.61;1701215;83;21663;-68
2022/02/02 04:04:08;;;;;;;20.27;8.37;;;;;;;-5.79;87.76;99020.78;1710265;82;21666;-67
2022/02/02 04:06:29;;;;;;;20.60;9.73;;;;;;;-5.81;88.41;99008.36;1709107;83;21593;-67
2022/02/02 04:08:56;;;;;;;18.97;7.77;;;;;;;-5.84;86.41;99014.71;1710516;83;21548;-67
2022/02/02 04:11:40;;;;;;;16.47;8.07;;;;;;;-5.84;86.29;99014.31;1710562;83;21031;-68
2022/02/02 04:15:08;;;;;;;20.53;9.27;;;;;;;-5.82;86.58;99016.88;1713493;83;21548;-67
2022/02/02 04:39:05;;;;;;;29.77;11.60;;;;;;;-5.92;86.87;99026.17;1711947;83;21035;-65
2022/02/02 04:52:36;;;;;;;28.57;11.50;;;;;;;-6.05;85.53;99030.75;1719681;83;21056;-65
2022/02/02 05:05:18;;;;;;;27.40;10.80;;;;;;;-6.13;86.33;99025.11;1722173;81;21055;-65
2022/02/02 05:09:59;;;;;;;29.70;11.80;;;;;;;-6.12;87.05;99017.87;1719167;81;21067;-65
2022/02/02 05:23:35;;;;;;;38.10;15.00;;;;;;;-6.18;85.10;99020.36;1715444;83;21102;-65
2022/02/02 05:42:06;;;;;;;36.73;13.40;;;;;;;-6.29;84.67;99032.17;1713991;83;21089;-64
2022/02/02 05:49:55;;;;;;;36.40;13.57;;;;;;;-6.26;86.37;99036.05;1711483;83;21067;-65
2022/02/02 05:52:05;;;;;;;31.93;12.87;;;;;;;-6.23;85.92;99047.64;1709183;82;21148;-64
2022/02/02 05:54:32;;;;;;;36.80;13.43;;;;;;;-6.18;88.06;99045.98;1707851;83;22090;-63
2022/02/02 05:56:58;;;;;;;28.27;11.83;;;;;;;-6.15;86.03;99042.59;1711949;83;21072;-65
2022/02/02 05:59:25;;;;;;;21.37;7.97;;;;;;;-6.08;86.06;99043.54;1720539;83;21109;-64
2022/02/02 06:01:57;;;;;;;28.03;12.33;;;;;;;-6.02;86.02;99046.19;1686460;83;21542;-65
2022/02/02 06:04:26;;;;;;;31.27;11.23;;;;;;;-5.96;84.41;99047.52;1674867;83;21189;-64
2022/02/02 06:06:54;;;;;;;31.33;12.03;;;;;;;-5.91;84.23;99047.14;1660244;85;21118;-64
2022/02/02 06:09:23;;;;;;;24.97;10.73;;;;;;;-5.86;83.81;99045.48;1660668;85;21060;-63
2022/02/02 06:11:50;;;;;;;26.10;10.10;;;;;;;-5.80;83.76;99048.09;1661067;85;21584;-66
2022/02/02 06:14:19;;;;;;;27.57;11.70;;;;;;;-5.75;83.56;99045.58;1647305;85;22298;-65
2022/02/02 06:16:47;;;;;;;24.53;10.80;;;;;;;-5.69;82.39;99050.79;1645452;85;21814;-65
2022/02/02 06:19:14;;;;;;;22.80;10.20;;;;;;;-5.62;82.49;99041.45;1658801;85;21581;-64
2022/02/02 06:21:40;;;;;;;23.90;10.50;;;;;;;-5.56;81.37;99036.41;1664109;85;21073;-66
2022/02/02 06:24:17;;;;;;;26.57;10.33;;;;;;;-5.49;80.10;99038.18;1662858;85;21602;-66
2022/02/02 06:26:47;;;;;;;31.47;10.33;;;;;;;-5.42;79.79;99032.26;1670358;85;21092;-66
2022/02/02 06:29:15;;;;;;;25.95;10.68;;;;;;;-5.35;79.74;99039.16;1650191;85;21133;-66
2022/02/02 06:31:43;;;;;;;34.60;11.10;;;;;;;-5.28;79.78;99034.95;1646571;85;21043;-67
2022/02/02 06:34:13;;;;;;;30.67;10.83;;;;;;;-5.20;81.45;99040.14;1655540;85;21285;-66
2022/02/02 06:36:41;;;;;;;29.00;9.90;;;;;;;-5.13;79.53;99041.52;1644935;85;21714;-66
2022/02/02 06:39:09;;;;;;;29.73;11.60;;;;;;;-5.02;79.44;99044.15;1647257;85;21129;-65
2022/02/02 06:41:36;;;;;;;31.97;11.60;;;;;;;-4.92;78.64;99036.97;1643812;85;22212;-66
2022/02/02 06:44:05;;;;;;;28.93;11.93;;;;;;;-4.79;77.69;99037.05;1704386;83;21029;-66
2022/02/02 06:46:34;;;;;;;34.37;12.27;;;;;;;-4.61;79.10;99038.45;1710763;83;21090;-65
2022/02/02 06:49:01;;;;;;;34.53;13.83;;;;;;;-4.44;77.91;99039.44;1706746;83;21066;-65
2022/02/02 06:51:36;;;;;;;39.60;14.77;;;;;;;-4.26;79.03;99032.66;1686874;83;21290;-65
2022/02/02 06:54:12;;;;;;;39.60;15.03;;;;;;;-4.10;79.28;99040.02;1690354;83;21227;-66
2022/02/02 06:57:00;;;;;;;36.95;14.47;;;;;;;-3.93;76.53;99043.53;1707598;83;21088;-67
2022/02/02 06:59:37;;;;;;;36.20;12.60;;;;;;;-3.75;76.64;99038.00;1693799;83;21554;-66
2022/02/02 07:16:19;;;;;;;42.13;15.68;;;;;;;-2.34;66.71;99023.44;1709490;83;21097;-67
2022/02/02 07:21:36;;;;;;;32.95;12.73;;;;;;;-1.91;65.11;99028.45;1698099;83;21145;-68
2022/02/02 07:24:15;;;;;;;30.43;11.70;;;;;;;-1.66;63.01;99023.14;1711824;82;21065;-67
2022/02/02 07:29:35;;;;;;;29.67;12.37;;;;;;;-1.41;62.31;99029.47;1706469;83;21686;-66
2022/02/02 07:35:11;;;;;;;27.15;11.60;;;;;;;-1.12;60.98;99013.33;1705826;84;21049;-66
2022/02/02 07:37:37;;;;;;;26.85;10.40;;;;;;;-0.97;60.35;99017.95;1705309;84;22010;-67
2022/02/02 07:40:07;;;;;;;31.48;10.78;;;;;;;-0.73;59.87;99017.75;1703888;83;21445;-66
2022/02/02 07:42:34;;;;;;;30.02;10.60;;;;;;;-0.53;59.35;99020.16;1719483;83;21563;-67
2022/02/02 07:45:08;;;;;;;27.35;10.15;;;;;;;-0.47;58.34;99021.80;1719042;83;21663;-66
2022/02/02 07:47:46;;;;;;;39.38;12.47;;;;;;;-0.50;56.96;99019.26;1718568;83;21189;-66
2022/02/02 07:50:16;;;;;;;27.02;9.80;;;;;;;-0.40;58.95;99015.69;1720060;83;21054;-66
2022/02/02 07:52:44;;;;;;;26.25;9.85;;;;;;;-0.31;57.19;99011.71;1719219;83;21588;-67
2022/02/02 07:55:13;;;;;;;29.70;11.15;;;;;;;-0.29;57.03;99011.27;1684417;85;21053;-66
2022/02/02 07:57:44;;;;;;;26.82;9.13;;;;;;;-0.24;57.61;99009.47;1719128;83;21732;-67
2022/02/02 08:00:17;;;;;;;30.37;10.43;;;;;;;-0.23;55.34;99007.32;1718000;83;21119;-66
2022/02/02 08:02:57;;;;;;;26.23;10.48;;;;;;;-0.19;57.51;99019.77;1713465;82;21031;-67
2022/02/02 08:05:12;;;;;;;28.73;9.18;;;;;;;-0.19;56.41;99016.33;1710643;83;21085;-66
2022/02/02 08:07:48;;;;;;;27.77;11.97;;;;;;;-0.25;55.17;99011.66;1704874;83;21623;-67
2022/02/02 08:12:48;;;;;;;24.37;8.48;;;;;;;-0.32;56.56;99011.30;1701504;83;21530;-65
2022/02/02 08:15:13;;;;;;;32.95;10.23;;;;;;;-0.30;56.21;99013.86;1677534;85;21177;-65
2022/02/02 08:17:40;;;;;;;35.25;9.95;;;;;;;-0.37;57.26;99013.51;1709671;83;21092;-65
2022/02/02 08:20:07;;;;;;;29.87;10.95;;;;;;;-0.38;56.81;99018.27;1719978;82;21078;-65
2022/02/02 08:22:38;;;;;;;32.55;11.30;;;;;;;-0.33;56.64;99021.66;1720886;83;21107;-66
2022/02/02 08:25:04;;;;;;;40.08;13.18;;;;;;;-0.34;56.63;99020.81;1714348;83;21091;-66
2022/02/02 08:27:37;;;;;;;28.65;10.32;;;;;;;-0.28;57.49;99009.08;1718199;83;21081;-67
2022/02/02 08:30:00;;;;;;;29.52;10.28;;;;;;;-0.10;57.45;99012.34;1716136;83;21104;-66
2022/02/02 08:32:30;;;;;;;32.67;10.15;;;;;;;0.08;56.67;99016.01;1708465;83;21033;-67
2022/02/02 08:34:58;;;;;;;33.88;12.30;;;;;;;0.26;56.97;99006.30;1698123;83;21114;-67
2022/02/02 08:37:30;;;;;;;24.70;10.43;;;;;;;0.43;56.56;99001.73;1710383;83;21955;-67
2022/02/02 08:40:17;;;;;;;48.85;11.93;;;;;;;0.52;56.19;99003.34;1704689;83;22341;-67
2022/02/02 08:42:19;;;;;;;33.88;11.63;;;;;;;0.58;57.08;99006.70;1701316;83;21038;-67
2022/02/02 08:45:02;;;;;;;33.60;11.53;;;;;;;0.56;55.81;99005.87;1706756;83;21117;-67
2022/02/02 08:47:20;;;;;;;36.80;12.78;;;;;;;0.49;55.94;98997.77;1699556;82;21101;-67
2022/02/02 08:49:52;;;;;;;27.22;10.65;;;;;;;0.40;58.54;98991.42;1699204;83;21037;-67
2022/02/02 08:52:16;;;;;;;31.70;10.78;;;;;;;0.28;56.36;98990.31;1691862;83;21080;-68
2022/02/02 08:54:47;;;;;;;24.98;10.45;;;;;;;0.02;56.88;98994.06;1699575;83;21054;-68
2022/02/02 08:59:52;;;;;;;24.57;11.12;;;;;;;-0.45;58.81;98993.75;1686326;83;21085;-67
2022/02/02 09:02:20;;;;;;;36.42;11.60;;;;;;;-0.58;59.99;98995.19;1686219;83;21583;-68
2022/02/02 09:07:31;;;;;;;31.35;11.95;;;;;;;-0.82;61.00;98993.72;1703442;83;21081;-67
2022/02/02 09:10:06;;;;;;;31.73;11.78;;;;;;;-0.95;62.67;98994.25;1687856;83;21610;-66
2022/02/02 09:23:57;;;;;;;30.52;12.63;;;;;;;-1.41;65.74;98982.98;1699888;83;21047;-67
2022/02/02 09:26:26;;;;;;;39.73;13.72;;;;;;;-1.40;66.51;98982.10;1708115;83;21098;-66
2022/02/02 09:34:06;;;;;;;35.92;13.22;;;;;;;-1.03;66.64;98962.46;1710602;83;21614;-66
2022/02/02 09:36:34;;;;;;;40.90;12.88;;;;;;;-0.92;66.41;98964.48;1713221;83;21044;-66
2022/02/02 09:39:20;;;;;;;35.83;13.48;;;;;;;-0.73;66.30;98966.04;1706548;83;21103;-67
2022/02/02 09:41:45;;;;;;;32.63;12.50;;;;;;;-0.54;67.11;98949.04;1706610;83;21196;-66
2022/02/02 09:44:11;;;;;;;32.15;11.80;;;;;;;-0.38;65.10;98948.43;1722643;83;21111;-65
2022/02/02 09:46:50;;;;;;;28.73;10.90;;;;;;;-0.18;64.78;98942.98;1714740;83;21027;-67
2022/02/02 09:49:16;;;;;;;32.20;10.78;;;;;;;-0.01;64.47;98943.20;1712864;83;21055;-66
2022/02/02 09:51:44;;;;;;;41.13;14.38;;;;;;;0.32;62.90;98938.87;1700546;83;21132;-67
2022/02/02 10:07:11;;;;;;;28.62;12.30;;;;;;;2.94;59.31;98896.40;1723527;83;21852;-67
2022/02/02 10:14:33;;;;;;;36.40;14.83;;;;;;;3.70;53.94;98884.79;1719006;83;21061;-68
2022/02/02 10:17:04;;;;;;;31.00;12.40;;;;;;;3.69;55.86;98881.80;1718380;83;21082;-66
2022/02/02 10:19:36;;;;;;;31.95;13.58;;;;;;;3.80;55.89;98887.55;1712007;83;21862;-66
2022/02/02 10:22:26;;;;;;;32.03;13.43;;;;;;;3.94;55.96;98897.09;1713533;83;21083;-66
2022/02/02 10:24:55;;;;;;;31.00;12.85;;;;;;;3.90;54.95;98895.48;1721578;82;21061;-65
2022/02/02 10:27:32;;;;;;;31.82;14.15;;;;;;;4.13;54.18;98879.61;1710712;82;21713;-66
2022/02/02 10:30:08;;;;;;;31.02;15.23;;;;;;;4.09;56.29;98883.20;1721226;83;21523;-65
2022/02/02 10:32:42;;;;;;;35.83;14.53;;;;;;;3.85;53.71;98887.41;1724105;83;21032;-65
2022/02/02 10:35:10;;;;;;;59.77;21.25;;;;;;;3.46;55.09;98885.05;1710998;82;21049;-65
2022/02/02 10:37:38;;;;;;;41.15;14.25;;;;;;;3.13;56.30;98879.88;1724868;82;21598;-66
2022/02/02 10:40:07;;;;;;;31.25;13.98;;;;;;;2.84;57.34;98870.23;1708682;83;21064;-66
2022/02/02 10:42:42;;;;;;;39.58;15.60;;;;;;;2.68;60.78;98868.47;1719520;83;21063;-66
2022/02/02 10:45:26;;;;;;;54.08;17.92;;;;;;;2.59;59.57;98869.55;1686207;83;21111;-66
2022/02/02 10:48:04;;;;;;;36.75;15.08;;;;;;;2.40;59.81;98870.45;1696271;83;21083;-67
2022/02/02 10:50:34;;;;;;;50.65;16.65;;;;;;;2.29;61.97;98864.20;1710302;83;21785;-67
2022/02/02 10:58:29;;;;;;;49.15;20.43;;;;;;;2.27;62.94;98859.93;1687557;83;21975;-66
2022/02/02 11:08:55;;;;;;;71.05;26.05;;;;;;;2.44;63.66;98836.13;1688190;83;21113;-66
2022/02/02 11:11:21;;;;;;;52.88;22.20;;;;;;;2.62;63.51;98819.23;1680985;83;21154;-67
2022/02/02 11:13:50;;;;;;;47.70;19.50;;;;;;;2.78;64.82;98819.69;1690520;83;21058;-66
2022/02/02 11:16:23;;;;;;;44.08;17.27;;;;;;;2.93;62.30;98819.28;1685286;83;21162;-66
2022/02/02 11:18:49;;;;;;;35.17;14.35;;;;;;;3.05;63.18;98808.53;1684831;83;21052;-65
2022/02/02 11:21:22;;;;;;;62.35;20.20;;;;;;;3.14;62.49;98804.37;1688552;83;21145;-67
2022/02/02 11:23:49;;;;;;;50.98;19.12;;;;;;;3.20;61.14;98811.60;1689641;83;21495;-66
2022/02/02 11:26:44;;;;;;;45.58;16.25;;;;;;;3.30;63.53;98807.86;1683033;84;21138;-66
2022/02/02 11:29:30;;;;;;;38.48;15.18;;;;;;;3.35;61.76;98802.91;1679515;84;21115;-65
2022/02/02 11:32:10;;;;;;;38.13;14.03;;;;;;;3.45;61.71;98804.83;1678143;83;21622;-66
2022/02/02 11:34:40;;;;;;;33.33;12.55;;;;;;;3.42;62.46;98799.69;1685142;83;21566;-66
2022/02/02 11:37:06;;;;;;;39.98;14.35;;;;;;;3.06;61.95;98801.58;1680981;83;21693;-65
2022/02/02 11:39:47;;;;;;;33.20;12.40;;;;;;;2.80;63.24;98797.10;1687017;83;21075;-65
2022/02/02 11:42:20;;;;;;;43.73;14.47;;;;;;;2.46;65.16;98790.17;1698382;83;21047;-66
2022/02/02 11:45:02;;;;;;;33.23;12.68;;;;;;;2.26;65.56;98792.00;1696441;83;21573;-67
2022/02/02 11:47:42;;;;;;;42.30;14.65;;;;;;;2.09;66.62;98788.49;1716641;83;21531;-65
2022/02/02 11:50:08;;;;;;;38.08;13.95;;;;;;;1.88;67.91;98780.31;1694668;83;21553;-65
2022/02/02 11:52:49;;;;;;;30.23;13.05;;;;;;;1.79;68.68;98789.62;1717818;83;21534;-65
2022/02/02 11:55:33;;;;;;;36.93;14.18;;;;;;;1.74;69.61;98787.58;1714433;82;26524;-66
2022/02/02 11:58:12;;;;;;;28.83;8.98;;;;;;;1.42;71.46;98780.05;1709866;82;21073;-64
2022/02/02 12:00:37;;;;;;;39.33;15.30;;;;;;;1.42;71.46;98780.05;1708379;82;21041;-65
2022/02/02 12:08:35;;;;;;;36.20;15.03;;;;;;;1.51;72.96;98775.11;1719267;83;21062;-65
2022/02/02 12:57:57;;;;;;;25.37;9.70;;;;;;;1.26;76.96;98786.45;1664699;83;21567;-66
2022/02/02 13:00:23;;;;;;;29.10;11.75;;;;;;;1.16;77.55;98787.55;1649053;85;21127;-65
2022/02/02 13:02:50;;;;;;;31.23;13.05;;;;;;;1.14;77.66;98790.61;1675519;83;21118;-66
2022/02/02 13:05:24;;;;;;;29.60;11.90;;;;;;;1.09;79.24;98791.16;1664349;83;21056;-66
2022/02/02 13:07:56;;;;;;;31.42;11.48;;;;;;;1.08;78.38;98799.80;1639814;85;21086;-66
2022/02/02 13:10:27;;;;;;;30.82;12.45;;;;;;;1.05;78.38;98797.67;1664287;83;21873;-66
2022/02/02 13:13:13;;;;;;;23.95;9.60;;;;;;;1.02;78.79;98808.11;1659878;83;21711;-65
2022/02/02 13:15:54;;;;;;;28.50;10.60;;;;;;;0.98;78.64;98805.16;1676018;83;21566;-66
2022/02/02 13:18:27;;;;;;;27.62;11.83;;;;;;;0.91;79.19;98797.09;1665586;83;21117;-66
2022/02/02 13:21:03;;;;;;;26.40;10.58;;;;;;;0.91;79.78;98803.58;1663901;83;21064;-66
2022/02/02 13:24:03;;;;;;;27.95;11.25;;;;;;;0.91;79.83;98811.35;1668059;83;21105;-66
2022/02/02 13:29:45;;;;;;;21.93;8.53;;;;;;;0.85;81.13;98812.75;1670237;83;21168;-66
2022/02/02 13:34:49;;;;;;;32.90;10.90;;;;;;;0.83;81.67;98822.33;1664810;83;21101;-65
2022/02/02 13:46:22;;;;;;;28.12;9.58;;;;;;;0.69;82.77;98827.76;1702873;82;21066;-66
2022/02/02 13:51:32;;;;;;;27.10;11.73;;;;;;;0.63;83.03;98831.74;1703416;82;21043;-67
2022/02/02 13:59:21;;;;;;;25.88;11.63;;;;;;;0.63;83.54;98831.30;1679224;82;21152;-65
2022/02/02 14:01:49;;;;;;;36.28;11.50;;;;;;;0.59;84.95;98836.11;1657774;85;21068;-65
2022/02/02 14:07:12;;;;;;;28.30;11.93;;;;;;;0.55;83.98;98842.66;1700401;83;21048;-66
2022/02/02 14:09:50;;;;;;;33.63;10.88;;;;;;;0.50;85.61;98845.33;1699720;82;21088;-66
2022/02/02 14:31:09;;;;;;;35.45;14.23;;;;;;;0.31;88.29;98851.71;1706994;83;21736;-66
2022/02/02 14:33:33;;;;;;;34.55;13.05;;;;;;;0.29;89.24;98849.13;1701438;82;21288;-67
2022/02/02 14:36:03;;;;;;;22.32;9.18;;;;;;;0.27;88.08;98855.22;1709690;83;21081;-67
2022/02/02 14:38:39;;;;;;;27.80;11.20;;;;;;;0.23;87.75;98850.55;1705677;82;21109;-67
2022/02/02 14:41:17;;;;;;;;;;;;;;;0.18;87.84;98846.73;1693160;82;21387;-66
2022/02/02 14:43:44;;;;;;;24.72;11.20;;;;;;;0.15;88.25;98849.80;1684133;82;21545;-65
2022/02/02 14:46:06;;;;;;;29.10;12.43;;;;;;;0.11;88.69;98852.01;1720770;82;21584;-66
2022/02/02 14:48:38;;;;;;;31.97;13.55;;;;;;;0.06;88.71;98854.67;1695167;83;21095;-65
2022/02/02 15:28:06;;;;;;;37.60;14.73;;;;;;;-0.52;94.35;98869.70;1715161;83;21093;-66
2022/02/02 15:30:33;;;;;;;33.33;15.28;;;;;;;-0.57;94.92;98865.04;1686366;83;21147;-66
2022/02/02 15:33:00;;;;;;;26.52;10.95;;;;;;;-0.60;95.15;98865.05;1651775;85;21079;-66
2022/02/02 15:35:27;;;;;;;36.68;17.60;;;;;;;-0.68;95.99;98860.84;1651025;85;21071;-66
2022/02/02 15:38:07;;;;;;;44.48;17.60;;;;;;;-0.69;96.40;98866.89;1663915;85;21120;-67
2022/02/02 15:40:44;;;;;;;41.30;17.42;;;;;;;-0.73;96.81;98862.62;1672031;85;21047;-66
2022/02/02 15:43:22;;;;;;;40.05;17.90;;;;;;;-0.75;97.03;98866.11;1652440;85;21925;-67
2022/02/02 15:59:32;;;;;;;48.35;21.87;;;;;;;-0.96;100.00;98881.42;1670765;85;21073;-68
2022/02/02 16:04:26;;;;;;;56.55;22.80;;;;;;;-1.06;100.00;98885.39;1670890;85;21164;-67
2022/02/02 16:06:54;;;;;;;54.80;20.35;;;;;;;-1.10;100.00;98879.83;1671669;85;21743;-67
2022/02/02 16:09:28;;;;;;;48.45;20.65;;;;;;;-1.13;100.00;98890.20;1667157;85;21147;-66
2022/02/02 16:12:05;;;;;;;51.05;20.32;;;;;;;-1.14;100.00;98894.93;1660801;85;21091;-66
2022/02/02 16:14:24;;;;;;;55.12;23.40;;;;;;;-1.19;100.00;98896.70;1645405;85;21123;-67
2022/02/02 16:17:11;;;;;;;55.12;22.32;;;;;;;-1.22;100.00;98898.04;1647230;85;21117;-67
2022/02/02 16:19:30;;;;;;;50.00;21.30;;;;;;;-1.22;100.00;98899.33;1658749;85;21082;-65
2022/02/02 16:38:11;;;;;;;68.80;27.60;;;;;;;-1.32;100.00;98899.82;1674890;85;21107;-66
2022/02/02 16:40:37;;;;;;;63.75;27.25;;;;;;;-1.32;100.00;98892.52;1666925;84;21088;-66
2022/02/02 16:45:35;;;;;;;68.97;28.85;;;;;;;-1.32;100.00;98902.84;1663158;85;22258;-66
2022/02/02 16:48:01;;;;;;;35.38;17.15;;;;;;;-1.36;100.00;98897.28;1669061;85;21346;-65
2022/02/02 16:50:35;;;;;;;69.55;27.73;;;;;;;-1.33;100.00;98907.16;1662421;85;21450;-66
2022/02/02 16:53:01;;;;;;;61.20;24.70;;;;;;;-1.35;100.00;98905.02;1657871;85;21093;-66
2022/02/02 16:55:42;;;;;;;59.18;25.00;;;;;;;-1.33;100.00;98908.89;1667039;85;22234;-67
2022/02/02 17:31:02;;;;;;;47.17;18.87;;;;;;;-1.52;100.00;98911.63;1654198;85;21128;-66
2022/02/02 17:33:34;;;;;;;57.45;22.93;;;;;;;-1.54;100.00;98918.53;1649721;85;21092;-66
2022/02/02 17:36:19;;;;;;;55.30;22.65;;;;;;;-1.53;100.00;98904.73;1652464;85;21038;-66
2022/02/02 17:38:56;;;;;;;49.42;19.52;;;;;;;-1.53;100.00;98906.02;1654085;85;21146;-65
2022/02/02 17:41:38;;;;;;;55.80;24.43;;;;;;;-1.54;100.00;98909.49;1654026;85;21250;-65
2022/02/02 18:14:40;;;;;;;59.73;24.27;;;;;;;-1.56;100.00;98906.50;1678952;83;21076;-65
2022/02/02 18:19:02;;;;;;;57.60;22.42;;;;;;;-1.55;100.00;98909.05;1693067;83;21698;-67
2022/02/02 18:21:31;;;;;;;61.95;24.45;;;;;;;-1.56;100.00;98912.52;1691360;83;22151;-65
2022/02/02 18:26:38;;;;;;;55.83;23.05;;;;;;;-1.54;100.00;98910.78;1696259;83;21073;-67
2022/02/02 18:29:01;;;;;;;60.90;23.32;;;;;;;-1.56;100.00;98909.09;1690514;83;21145;-66
2022/02/02 18:40:16;;;;;;;59.45;23.85;;;;;;;-1.54;100.00;98905.62;1688661;83;21018;-66
2022/02/02 18:44:53;;;;;;;62.90;24.65;;;;;;;-1.52;100.00;98908.16;1680153;83;21111;-67
2022/02/02 18:47:20;;;;;;;49.45;18.95;;;;;;;-1.53;100.00;98915.06;1685752;83;21291;-65
2022/02/02 18:55:24;;;;;;;60.50;24.65;;;;;;;-1.49;100.00;98911.59;1677138;83;21125;-64
2022/02/02 19:05:48;;;;;;;69.77;27.58;;;;;;;-1.43;100.00;98917.57;1692586;83;21514;-65
2022/02/02 19:08:17;;;;;;;65.85;24.57;;;;;;;-1.43;100.00;98920.16;1704976;83;21604;-67
2022/02/02 19:15:12;;;;;;;60.70;20.32;;;;;;;-1.42;100.00;98916.72;1703600;83;21247;-66
2022/02/02 19:38:20;;;;;;;66.35;26.02;;;;;;;-1.18;100.00;98929.41;1698571;83;21075;-67
2022/02/02 19:40:40;;;;;;;69.53;27.10;;;;;;;-1.17;100.00;98923.39;1693792;83;21568;-66
2022/02/02 20:03:10;;;;;;;68.30;26.05;;;;;;;-1.06;100.00;98931.90;1689942;83;21063;-67
2022/02/02 20:04:43;;;;;;;67.87;27.98;;;;;;;-1.03;100.00;98939.20;1689289;83;21616;-67
2022/02/02 20:07:27;;;;;;;68.67;28.83;;;;;;;-1.03;100.00;98926.28;1683479;83;21160;-66
2022/02/02 20:10:02;;;;;;;56.68;22.00;;;;;;;-1.01;100.00;98923.22;1679616;83;21097;-66
2022/02/02 20:12:34;;;;;;;60.10;27.60;;;;;;;-1.01;100.00;98934.85;1683306;83;21068;-66
2022/02/02 20:14:58;;;;;;;69.50;28.17;;;;;;;-0.98;100.00;98929.67;1688880;83;21665;-66
2022/02/02 20:17:26;;;;;;;60.60;25.70;;;;;;;-0.96;100.00;98934.40;1693247;83;21179;-66
2022/02/02 20:19:59;;;;;;;58.13;26.02;;;;;;;-0.95;100.00;98939.97;1690771;83;21144;-66
2022/02/02 20:22:27;;;;;;;58.87;24.02;;;;;;;-0.94;100.00;98937.83;1692596;83;21125;-66
2022/02/02 20:24:59;;;;;;;63.70;25.68;;;;;;;-0.95;100.00;98933.52;1701854;83;21057;-66
2022/02/02 20:27:23;;;;;;;59.05;25.43;;;;;;;-0.94;100.00;98936.53;1700211;83;21619;-68
2022/02/02 20:29:49;;;;;;;69.30;29.10;;;;;;;-0.96;100.00;98938.27;1696754;83;21066;-67
2022/02/02 20:32:16;;;;;;;65.60;27.25;;;;;;;-0.94;100.00;98936.53;1701803;83;22105;-68
2022/02/02 20:34:43;;;;;;;65.20;26.07;;;;;;;-0.93;100.00;98939.53;1697806;83;21093;-67
2022/02/02 20:37:13;;;;;;;64.62;27.35;;;;;;;-0.92;100.00;98929.59;1689420;83;21119;-67
2022/02/02 20:40:04;;;;;;;65.83;28.63;;;;;;;-0.91;100.00;98933.91;1694883;83;21061;-67
2022/02/02 20:42:09;;;;;;;65.83;27.50;;;;;;;-0.93;100.00;98931.33;1696541;83;21490;-67
2022/02/02 20:44:56;;;;;;;68.83;26.35;;;;;;;-0.92;100.00;98935.64;1698504;83;21062;-67
2022/02/02 21:06:21;;;;;;;58.87;27.30;;;;;;;-0.87;100.00;98951.95;1664268;83;22183;-70
2022/02/02 21:11:36;;;;;;;55.58;24.15;;;;;;;-0.82;100.00;98960.95;1703334;83;21571;-69
2022/02/02 21:13:53;;;;;;;63.73;25.80;;;;;;;-0.80;100.00;98958.38;1706423;83;21693;-69
2022/02/02 21:16:18;;;;;;;63.50;27.80;;;;;;;-0.81;100.00;98966.53;1718164;83;21104;-69
2022/02/02 21:18:47;;;;;;;64.45;25.82;;;;;;;-0.78;100.00;98970.41;1708006;83;21077;-69